sensor_id;sensor_type;location;lat;lon;timestamp;temperature;humidity
53748;DHT22;39655;53.210;5.768;2022-08-19T13:50:43;26.20;62.40
53748;DHT22;39655;53.210;5.768;2022-08-19T13:53:12;26.40;63.00
53748;DHT22;39655;53.210;5.768;2022-08-19T13:55:40;26.30;59.80
53748;DHT22;39655;53.210;5.768;2022-08-19T13:58:05;26.10;61.10
53748;DHT22;39655;53.210;5.768;2022-08-19T14:00:34;26.10;62.50
53748;DHT22;39655;53.210;5.768;2022-08-19T14:03:00;26.00;63.30
53748;DHT22;39655;53.210;5.768;2022-08-19T14:05:27;26.00;62.30
53748;DHT22;39655;53.210;5.768;2022-08-19T14:07:54;26.10;63.40
53748;DHT22;39655;53.210;5.768;2022-08-19T14:10:20;26.10;62.60
53748;DHT22;39655;53.210;5.768;2022-08-19T14:12:46;25.90;63.80
53748;DHT22;39655;53.210;5.768;2022-08-19T14:15:13;26.10;63.70
53748;DHT22;39655;53.210;5.768;2022-08-19T14:17:40;26.60;62.40
53748;DHT22;39655;53.210;5.768;2022-08-19T14:20:07;27.10;60.50
53748;DHT22;39655;53.210;5.768;2022-08-19T14:22:39;27.70;60.00
53748;DHT22;39655;53.210;5.768;2022-08-19T14:25:06;28.30;56.40
53748;DHT22;39655;53.210;5.768;2022-08-19T14:27:34;28.60;55.40
53748;DHT22;39655;53.210;5.768;2022-08-19T14:29:59;28.50;53.30
53748;DHT22;39655;53.210;5.768;2022-08-19T14:32:25;28.20;55.20
53748;DHT22;39655;53.210;5.768;2022-08-19T14:34:52;28.20;57.10
53748;DHT22;39655;53.210;5.768;2022-08-19T14:37:18;27.90;57.30
53748;DHT22;39655;53.210;5.768;2022-08-19T14:39:44;27.30;58.10
53748;DHT22;39655;53.210;5.768;2022-08-19T14:42:11;27.00;58.40
53748;DHT22;39655;53.210;5.768;2022-08-19T14:44:37;26.60;58.70
53748;DHT22;39655;53.210;5.768;2022-08-19T14:47:03;26.40;60.90
53748;DHT22;39655;53.210;5.768;2022-08-19T14:49:29;26.30;61.40
53748;DHT22;39655;53.210;5.768;2022-08-19T14:51:55;26.60;61.30
53748;DHT22;39655;53.210;5.768;2022-08-19T14:54:21;27.10;59.70
53748;DHT22;39655;53.210;5.768;2022-08-19T14:56:47;27.30;59.10
53748;DHT22;39655;53.210;5.768;2022-08-19T14:59:14;27.00;59.20
53748;DHT22;39655;53.210;5.768;2022-08-19T15:01:40;26.50;62.00
53748;DHT22;39655;53.210;5.768;2022-08-19T15:04:05;26.10;63.80
53748;DHT22;39655;53.210;5.768;2022-08-19T15:06:31;26.10;64.70
53748;DHT22;39655;53.210;5.768;2022-08-19T15:08:57;26.50;63.30
53748;DHT22;39655;53.210;5.768;2022-08-19T15:11:25;26.80;62.10
53748;DHT22;39655;53.210;5.768;2022-08-19T15:13:54;27.10;60.20
53748;DHT22;39655;53.210;5.768;2022-08-19T15:16:20;27.40;59.80
53748;DHT22;39655;53.210;5.768;2022-08-19T15:18:50;27.30;60.80
53748;DHT22;39655;53.210;5.768;2022-08-19T15:21:17;27.10;60.30
53748;DHT22;39655;53.210;5.768;2022-08-19T15:23:46;26.70;62.40
53748;DHT22;39655;53.210;5.768;2022-08-19T15:26:13;26.40;63.30
53748;DHT22;39655;53.210;5.768;2022-08-19T15:28:40;26.30;63.90
53748;DHT22;39655;53.210;5.768;2022-08-19T15:31:07;26.40;63.50
53748;DHT22;39655;53.210;5.768;2022-08-19T15:33:34;26.40;63.80
53748;DHT22;39655;53.210;5.768;2022-08-19T15:36:03;26.70;63.70
53748;DHT22;39655;53.210;5.768;2022-08-19T15:38:31;26.70;62.80
53748;DHT22;39655;53.210;5.768;2022-08-19T15:40:59;26.50;63.50
53748;DHT22;39655;53.210;5.768;2022-08-19T15:43:45;26.20;63.60
53748;DHT22;39655;53.210;5.768;2022-08-19T15:46:10;26.20;63.90
53748;DHT22;39655;53.210;5.768;2022-08-19T15:48:36;26.60;63.50
53748;DHT22;39655;53.210;5.768;2022-08-19T15:51:02;26.60;63.50
53748;DHT22;39655;53.210;5.768;2022-08-19T15:53:28;26.50;63.80
53748;DHT22;39655;53.210;5.768;2022-08-19T15:55:53;26.70;62.90
53748;DHT22;39655;53.210;5.768;2022-08-19T15:58:19;26.70;63.00
53748;DHT22;39655;53.210;5.768;2022-08-19T16:01:05;26.30;63.50
53748;DHT22;39655;53.210;5.768;2022-08-19T16:03:51;26.10;63.10
53748;DHT22;39655;53.210;5.768;2022-08-19T16:06:39;25.90;64.60
53748;DHT22;39655;53.210;5.768;2022-08-19T16:09:05;25.60;65.30
53748;DHT22;39655;53.210;5.768;2022-08-19T16:11:32;25.60;65.60
53748;DHT22;39655;53.210;5.768;2022-08-19T16:13:59;25.40;66.00
53748;DHT22;39655;53.210;5.768;2022-08-19T16:16:31;25.90;65.60
53748;DHT22;39655;53.210;5.768;2022-08-19T16:19:00;26.40;64.50
53748;DHT22;39655;53.210;5.768;2022-08-19T16:21:28;26.40;62.60
53748;DHT22;39655;53.210;5.768;2022-08-19T16:23:58;26.20;63.70
53748;DHT22;39655;53.210;5.768;2022-08-19T16:26:25;26.10;64.40
53748;DHT22;39655;53.210;5.768;2022-08-19T16:28:56;26.00;65.20
53748;DHT22;39655;53.210;5.768;2022-08-19T16:31:22;25.60;65.50
53748;DHT22;39655;53.210;5.768;2022-08-19T16:33:48;25.50;66.30
53748;DHT22;39655;53.210;5.768;2022-08-19T16:36:14;25.60;66.60
53748;DHT22;39655;53.210;5.768;2022-08-19T16:38:40;26.00;65.70
53748;DHT22;39655;53.210;5.768;2022-08-19T16:41:06;26.00;64.50
53748;DHT22;39655;53.210;5.768;2022-08-19T16:43:32;25.80;64.90
53748;DHT22;39655;53.210;5.768;2022-08-19T16:45:58;25.70;65.80
53748;DHT22;39655;53.210;5.768;2022-08-19T16:48:26;26.20;64.10
53748;DHT22;39655;53.210;5.768;2022-08-19T16:50:56;26.30;63.40
53748;DHT22;39655;53.210;5.768;2022-08-19T16:53:23;26.40;63.70
53748;DHT22;39655;53.210;5.768;2022-08-19T16:55:53;27.00;62.20
53748;DHT22;39655;53.210;5.768;2022-08-19T16:58:20;27.80;59.90
53748;DHT22;39655;53.210;5.768;2022-08-19T17:00:47;28.10;57.70
53748;DHT22;39655;53.210;5.768;2022-08-19T17:03:15;27.90;59.40
53748;DHT22;39655;53.210;5.768;2022-08-19T17:05:51;27.10;61.70
53748;DHT22;39655;53.210;5.768;2022-08-19T17:08:20;26.60;63.50
53748;DHT22;39655;53.210;5.768;2022-08-19T17:10:47;26.20;64.60
53748;DHT22;39655;53.210;5.768;2022-08-19T17:13:14;25.70;66.00
53748;DHT22;39655;53.210;5.768;2022-08-19T17:15:41;25.50;67.10
53748;DHT22;39655;53.210;5.768;2022-08-19T17:18:08;25.30;68.00
53748;DHT22;39655;53.210;5.768;2022-08-19T17:20:35;25.10;68.50
53748;DHT22;39655;53.210;5.768;2022-08-19T17:23:02;25.00;68.80
53748;DHT22;39655;53.210;5.768;2022-08-19T17:25:29;24.80;69.70
53748;DHT22;39655;53.210;5.768;2022-08-19T17:27:57;24.70;70.40
53748;DHT22;39655;53.210;5.768;2022-08-19T17:30:23;24.60;71.00
53748;DHT22;39655;53.210;5.768;2022-08-19T17:32:49;24.50;71.60
53748;DHT22;39655;53.210;5.768;2022-08-19T17:35:16;24.40;72.20
53748;DHT22;39655;53.210;5.768;2022-08-19T17:37:49;24.30;72.70
53748;DHT22;39655;53.210;5.768;2022-08-19T17:40:16;24.10;73.40
53748;DHT22;39655;53.210;5.768;2022-08-19T17:42:44;24.10;73.80
53748;DHT22;39655;53.210;5.768;2022-08-19T17:45:12;24.10;73.40
53748;DHT22;39655;53.210;5.768;2022-08-19T17:47:38;23.90;74.00
53748;DHT22;39655;53.210;5.768;2022-08-19T17:50:07;23.70;74.50
53748;DHT22;39655;53.210;5.768;2022-08-19T17:52:33;23.70;74.70
53748;DHT22;39655;53.210;5.768;2022-08-19T17:54:59;23.90;74.20
53748;DHT22;39655;53.210;5.768;2022-08-19T17:57:25;24.00;74.00
53748;DHT22;39655;53.210;5.768;2022-08-19T17:59:51;24.10;73.60
53748;DHT22;39655;53.210;5.768;2022-08-19T18:02:17;24.00;73.70
53748;DHT22;39655;53.210;5.768;2022-08-19T18:04:43;23.90;73.20
53748;DHT22;39655;53.210;5.768;2022-08-19T18:07:09;23.70;73.40
53748;DHT22;39655;53.210;5.768;2022-08-19T18:09:37;23.60;74.20
53748;DHT22;39655;53.210;5.768;2022-08-19T18:12:06;23.50;74.60
53748;DHT22;39655;53.210;5.768;2022-08-19T18:14:34;23.40;75.00
53748;DHT22;39655;53.210;5.768;2022-08-19T18:17:12;23.30;75.20
53748;DHT22;39655;53.210;5.768;2022-08-19T18:19:41;23.30;75.60
53748;DHT22;39655;53.210;5.768;2022-08-19T18:22:07;23.30;75.50
53748;DHT22;39655;53.210;5.768;2022-08-19T18:24:32;23.20;75.20
53748;DHT22;39655;53.210;5.768;2022-08-19T18:27:01;23.10;75.20
53748;DHT22;39655;53.210;5.768;2022-08-19T18:29:27;23.10;75.30
53748;DHT22;39655;53.210;5.768;2022-08-19T18:31:57;23.00;75.60
53748;DHT22;39655;53.210;5.768;2022-08-19T18:34:23;23.00;76.10
53748;DHT22;39655;53.210;5.768;2022-08-19T18:36:48;22.90;76.10
53748;DHT22;39655;53.210;5.768;2022-08-19T18:39:14;22.90;76.40
53748;DHT22;39655;53.210;5.768;2022-08-19T18:41:58;23.00;76.60
53748;DHT22;39655;53.210;5.768;2022-08-19T18:44:43;22.90;76.30
53748;DHT22;39655;53.210;5.768;2022-08-19T18:47:27;22.80;76.60
53748;DHT22;39655;53.210;5.768;2022-08-19T18:50:11;22.80;76.60
53748;DHT22;39655;53.210;5.768;2022-08-19T18:52:38;22.70;76.90
53748;DHT22;39655;53.210;5.768;2022-08-19T18:55:05;22.70;76.70
53748;DHT22;39655;53.210;5.768;2022-08-19T18:57:32;22.70;76.80
53748;DHT22;39655;53.210;5.768;2022-08-19T18:59:58;22.70;76.70
53748;DHT22;39655;53.210;5.768;2022-08-19T19:02:24;22.70;76.90
53748;DHT22;39655;53.210;5.768;2022-08-19T19:04:50;22.60;77.10
53748;DHT22;39655;53.210;5.768;2022-08-19T19:07:16;22.60;77.10
53748;DHT22;39655;53.210;5.768;2022-08-19T19:09:45;22.60;77.70
53748;DHT22;39655;53.210;5.768;2022-08-19T19:12:15;22.60;77.70
53748;DHT22;39655;53.210;5.768;2022-08-19T19:14:42;22.60;77.80
53748;DHT22;39655;53.210;5.768;2022-08-19T19:17:11;22.60;78.10
53748;DHT22;39655;53.210;5.768;2022-08-19T19:19:39;22.50;78.40
53748;DHT22;39655;53.210;5.768;2022-08-19T19:22:08;22.40;78.60
53748;DHT22;39655;53.210;5.768;2022-08-19T19:24:35;22.40;78.70
53748;DHT22;39655;53.210;5.768;2022-08-19T19:27:03;22.40;78.70
53748;DHT22;39655;53.210;5.768;2022-08-19T19:29:33;22.40;78.80
53748;DHT22;39655;53.210;5.768;2022-08-19T19:32:05;22.30;78.60
53748;DHT22;39655;53.210;5.768;2022-08-19T19:34:32;22.20;78.80
53748;DHT22;39655;53.210;5.768;2022-08-19T19:36:58;22.20;78.60
53748;DHT22;39655;53.210;5.768;2022-08-19T19:39:23;22.10;78.50
53748;DHT22;39655;53.210;5.768;2022-08-19T19:41:49;22.10;78.80
53748;DHT22;39655;53.210;5.768;2022-08-19T19:44:15;22.00;78.80
53748;DHT22;39655;53.210;5.768;2022-08-19T19:46:42;21.90;79.10
53748;DHT22;39655;53.210;5.768;2022-08-19T19:49:08;21.80;79.30
53748;DHT22;39655;53.210;5.768;2022-08-19T19:51:34;21.80;79.60
53748;DHT22;39655;53.210;5.768;2022-08-19T19:54:08;21.70;79.80
53748;DHT22;39655;53.210;5.768;2022-08-19T19:56:34;21.70;80.00
53748;DHT22;39655;53.210;5.768;2022-08-19T19:59:00;21.60;80.10
53748;DHT22;39655;53.210;5.768;2022-08-19T20:01:28;21.60;80.00
53748;DHT22;39655;53.210;5.768;2022-08-19T20:03:53;21.60;80.00
53748;DHT22;39655;53.210;5.768;2022-08-19T20:06:20;21.60;80.10
53748;DHT22;39655;53.210;5.768;2022-08-19T20:08:46;21.60;80.10
53748;DHT22;39655;53.210;5.768;2022-08-19T20:14:07;21.50;79.80
53748;DHT22;39655;53.210;5.768;2022-08-19T20:16:35;21.40;80.00
53748;DHT22;39655;53.210;5.768;2022-08-19T20:19:02;21.30;80.10
53748;DHT22;39655;53.210;5.768;2022-08-19T20:21:29;21.30;79.90
53748;DHT22;39655;53.210;5.768;2022-08-19T20:24:02;21.30;80.00
53748;DHT22;39655;53.210;5.768;2022-08-19T20:26:28;21.30;80.00
53748;DHT22;39655;53.210;5.768;2022-08-19T20:28:55;21.20;80.10
53748;DHT22;39655;53.210;5.768;2022-08-19T20:31:21;21.20;80.00
53748;DHT22;39655;53.210;5.768;2022-08-19T20:33:46;21.10;80.30
53748;DHT22;39655;53.210;5.768;2022-08-19T20:36:12;21.10;80.60
53748;DHT22;39655;53.210;5.768;2022-08-19T20:38:39;21.00;80.90
53748;DHT22;39655;53.210;5.768;2022-08-19T20:41:05;20.80;81.00
53748;DHT22;39655;53.210;5.768;2022-08-19T20:43:31;20.70;81.10
53748;DHT22;39655;53.210;5.768;2022-08-19T20:45:58;20.70;81.40
53748;DHT22;39655;53.210;5.768;2022-08-19T20:48:26;20.60;81.50
53748;DHT22;39655;53.210;5.768;2022-08-19T20:50:51;20.60;81.60
53748;DHT22;39655;53.210;5.768;2022-08-19T20:53:19;20.50;81.60
53748;DHT22;39655;53.210;5.768;2022-08-19T20:55:46;20.50;81.40
53748;DHT22;39655;53.210;5.768;2022-08-19T20:58:17;20.40;81.50
53748;DHT22;39655;53.210;5.768;2022-08-19T21:00:44;20.40;81.60
53748;DHT22;39655;53.210;5.768;2022-08-19T21:03:19;20.30;81.70
53748;DHT22;39655;53.210;5.768;2022-08-19T21:05:45;20.30;81.70
53748;DHT22;39655;53.210;5.768;2022-08-19T21:08:57;20.30;81.70
